createdAt,value
2022-12-31T00:00:23.000Z,100.00
2022-12-31T00:01:25.000Z,100.00
2022-12-31T00:02:24.000Z,100.00
2022-12-31T00:03:24.000Z,100.00
2022-12-31T00:04:24.000Z,100.00
2022-12-31T00:05:24.000Z,100.00
2022-12-31T00:06:29.000Z,100.00
2022-12-31T00:07:23.000Z,100.00
2022-12-31T00:08:24.000Z,100.00
2022-12-31T00:09:23.000Z,100.00
2022-12-31T00:10:24.000Z,100.00
2022-12-31T00:11:26.000Z,100.00
2022-12-31T00:12:24.000Z,100.00
2022-12-31T00:13:23.000Z,100.00
2022-12-31T00:14:23.000Z,100.00
2022-12-31T00:15:23.000Z,100.00
2022-12-31T00:16:26.000Z,100.00
2022-12-31T00:17:23.000Z,100.00
2022-12-31T00:18:25.000Z,100.00
2022-12-31T00:19:23.000Z,100.00
2022-12-31T00:20:23.000Z,100.00
2022-12-31T00:21:24.000Z,100.00
2022-12-31T00:22:23.000Z,100.00
2022-12-31T00:23:23.000Z,100.00
2022-12-31T00:24:23.000Z,100.00
2022-12-31T00:25:23.000Z,100.00
2022-12-31T00:26:26.000Z,100.00
2022-12-31T00:27:23.000Z,100.00
2022-12-31T00:28:23.000Z,100.00
2022-12-31T00:29:23.000Z,100.00
2022-12-31T00:30:23.000Z,100.00
2022-12-31T00:31:26.000Z,100.00
2022-12-31T00:32:23.000Z,100.00
2022-12-31T00:33:23.000Z,100.00
2022-12-31T00:34:23.000Z,100.00
2022-12-31T00:35:23.000Z,100.00
2022-12-31T00:36:26.000Z,100.00
2022-12-31T00:37:23.000Z,100.00
2022-12-31T00:38:23.000Z,100.00
2022-12-31T00:39:23.000Z,100.00
2022-12-31T00:40:23.000Z,100.00
2022-12-31T00:41:24.000Z,100.00
2022-12-31T00:42:23.000Z,100.00
2022-12-31T00:43:23.000Z,100.00
2022-12-31T00:44:24.000Z,100.00
2022-12-31T00:45:23.000Z,100.00
2022-12-31T00:46:24.000Z,100.00
2022-12-31T00:47:25.000Z,100.00
2022-12-31T00:48:24.000Z,100.00
2022-12-31T00:49:24.000Z,100.00
2022-12-31T00:50:24.000Z,100.00
2022-12-31T00:51:26.000Z,100.00
2022-12-31T00:52:24.000Z,100.00
2022-12-31T00:53:25.000Z,100.00
2022-12-31T00:54:24.000Z,100.00
2022-12-31T00:55:24.000Z,100.00
2022-12-31T00:56:28.000Z,100.00
2022-12-31T00:57:24.000Z,100.00
2022-12-31T00:58:23.000Z,100.00
2022-12-31T00:59:24.000Z,100.00
2022-12-31T01:00:24.000Z,100.00
2022-12-31T01:01:33.000Z,100.00
2022-12-31T01:02:24.000Z,100.00
2022-12-31T01:03:24.000Z,100.00
2022-12-31T01:04:24.000Z,100.00
2022-12-31T01:05:23.000Z,100.00
2022-12-31T01:06:24.000Z,100.00
2022-12-31T01:07:24.000Z,100.00
2022-12-31T01:08:24.000Z,100.00
2022-12-31T01:09:24.000Z,100.00
2022-12-31T01:10:29.000Z,100.00
2022-12-31T01:11:28.000Z,100.00
2022-12-31T01:12:24.000Z,100.00
2022-12-31T01:13:24.000Z,100.00
2022-12-31T01:14:24.000Z,100.00
2022-12-31T01:15:24.000Z,100.00
2022-12-31T01:16:30.000Z,100.00
2022-12-31T01:17:23.000Z,100.00
2022-12-31T01:18:23.000Z,100.00
2022-12-31T01:19:26.000Z,100.00
2022-12-31T01:20:24.000Z,100.00
2022-12-31T01:21:24.000Z,100.00
2022-12-31T01:22:23.000Z,100.00
2022-12-31T01:23:24.000Z,100.00
2022-12-31T01:24:24.000Z,100.00
2022-12-31T01:25:23.000Z,100.00
2022-12-31T01:26:24.000Z,100.00
2022-12-31T01:27:23.000Z,100.00
2022-12-31T01:28:24.000Z,100.00
2022-12-31T01:29:24.000Z,100.00
2022-12-31T01:30:24.000Z,100.00
2022-12-31T01:31:24.000Z,100.00
2022-12-31T01:32:23.000Z,100.00
2022-12-31T01:33:23.000Z,100.00
2022-12-31T01:34:24.000Z,100.00
2022-12-31T01:35:24.000Z,100.00
2022-12-31T01:36:26.000Z,100.00
2022-12-31T01:37:24.000Z,100.00
2022-12-31T01:38:24.000Z,100.00
2022-12-31T01:39:24.000Z,100.00
2022-12-31T01:40:23.000Z,100.00
2022-12-31T01:41:30.000Z,100.00
2022-12-31T01:42:24.000Z,100.00
2022-12-31T01:43:43.000Z,100.00
2022-12-31T01:44:45.000Z,100.00
2022-12-31T01:45:24.000Z,100.00
2022-12-31T01:46:47.000Z,100.00
2022-12-31T01:47:36.000Z,100.00
2022-12-31T01:48:25.000Z,100.00
2022-12-31T01:49:35.000Z,100.00
2022-12-31T01:50:31.000Z,100.00
2022-12-31T01:51:28.000Z,100.00
2022-12-31T01:52:32.000Z,100.00
2022-12-31T01:53:24.000Z,100.00
2022-12-31T01:54:25.000Z,100.00
2022-12-31T01:55:47.000Z,100.00
2022-12-31T01:56:24.000Z,100.00
2022-12-31T01:57:25.000Z,100.00
2022-12-31T01:58:28.000Z,100.00
2022-12-31T01:59:27.000Z,100.00
2022-12-31T02:00:24.000Z,100.00
2022-12-31T02:01:27.000Z,100.00
2022-12-31T02:02:24.000Z,100.00
2022-12-31T02:03:26.000Z,100.00
2022-12-31T02:04:25.000Z,100.00
2022-12-31T02:05:37.000Z,100.00
2022-12-31T02:06:32.000Z,100.00
2022-12-31T02:07:24.000Z,100.00
2022-12-31T02:08:24.000Z,100.00
2022-12-31T02:09:24.000Z,100.00
2022-12-31T02:10:24.000Z,100.00
2022-12-31T02:11:30.000Z,100.00
2022-12-31T02:12:24.000Z,100.00
2022-12-31T02:13:24.000Z,100.00
2022-12-31T02:14:31.000Z,100.00
2022-12-31T02:15:44.000Z,100.00
2022-12-31T02:16:34.000Z,100.00
2022-12-31T02:17:36.000Z,100.00
2022-12-31T02:18:33.000Z,100.00
2022-12-31T02:19:34.000Z,100.00
2022-12-31T02:20:34.000Z,100.00
2022-12-31T02:21:39.000Z,100.00
2022-12-31T02:22:45.000Z,100.00
2022-12-31T02:23:44.000Z,100.00
2022-12-31T02:24:34.000Z,100.00
2022-12-31T02:25:34.000Z,100.00
2022-12-31T02:26:46.000Z,100.00
2022-12-31T02:27:34.000Z,100.00
2022-12-31T02:28:50.000Z,100.00
2022-12-31T02:29:46.000Z,100.00
2022-12-31T02:30:27.000Z,100.00
2022-12-31T02:31:42.000Z,100.00
2022-12-31T02:32:32.000Z,100.00
2022-12-31T02:33:34.000Z,100.00
2022-12-31T02:34:31.000Z,100.00
2022-12-31T02:35:29.000Z,100.00
2022-12-31T02:36:29.000Z,100.00
2022-12-31T02:37:27.000Z,100.00
2022-12-31T02:38:31.000Z,100.00
2022-12-31T02:39:24.000Z,100.00
2022-12-31T02:40:24.000Z,100.00
2022-12-31T02:41:29.000Z,100.00
2022-12-31T02:42:24.000Z,100.00
2022-12-31T02:43:24.000Z,100.00
2022-12-31T02:44:32.000Z,100.00
2022-12-31T02:45:32.000Z,100.00
2022-12-31T02:46:38.000Z,100.00
2022-12-31T02:47:43.000Z,100.00
2022-12-31T02:48:35.000Z,100.00
2022-12-31T02:49:33.000Z,100.00
2022-12-31T02:50:34.000Z,100.00
2022-12-31T02:51:35.000Z,100.00
2022-12-31T02:52:43.000Z,100.00
2022-12-31T02:53:33.000Z,100.00
2022-12-31T02:54:34.000Z,100.00
2022-12-31T02:55:33.000Z,100.00
2022-12-31T02:56:34.000Z,100.00
2022-12-31T02:57:31.000Z,100.00
2022-12-31T02:58:57.000Z,100.00
2022-12-31T02:59:41.000Z,100.00
2022-12-31T03:00:31.000Z,100.00
2022-12-31T03:01:33.000Z,100.00
2022-12-31T03:02:26.000Z,100.00
2022-12-31T03:03:25.000Z,100.00
2022-12-31T03:04:31.000Z,100.00
2022-12-31T03:05:27.000Z,100.00
2022-12-31T03:06:23.000Z,100.00
2022-12-31T03:07:28.000Z,100.00
2022-12-31T03:08:24.000Z,100.00
2022-12-31T03:09:23.000Z,100.00
2022-12-31T03:10:23.000Z,100.00
2022-12-31T03:11:28.000Z,100.00
2022-12-31T03:12:31.000Z,100.00
2022-12-31T03:13:23.000Z,100.00
2022-12-31T03:14:23.000Z,100.00
2022-12-31T03:15:29.000Z,100.00
2022-12-31T03:16:23.000Z,100.00
2022-12-31T03:17:24.000Z,100.00
2022-12-31T03:18:38.000Z,100.00
2022-12-31T03:19:28.000Z,100.00
2022-12-31T03:20:45.000Z,100.00
2022-12-31T03:21:28.000Z,100.00
2022-12-31T03:22:26.000Z,100.00
2022-12-31T03:23:32.000Z,100.00
2022-12-31T03:24:28.000Z,100.00
2022-12-31T03:25:28.000Z,100.00
2022-12-31T03:26:23.000Z,100.00
2022-12-31T03:27:23.000Z,100.00
2022-12-31T03:28:26.000Z,100.00
2022-12-31T03:29:23.000Z,100.00
2022-12-31T03:30:23.000Z,100.00
2022-12-31T03:31:23.000Z,100.00
2022-12-31T03:32:23.000Z,100.00
2022-12-31T03:33:24.000Z,100.00
2022-12-31T03:34:23.000Z,100.00
2022-12-31T03:35:25.000Z,100.00
2022-12-31T03:36:23.000Z,100.00
2022-12-31T03:37:23.000Z,100.00
2022-12-31T03:38:23.000Z,99.79
2022-12-31T03:39:23.000Z,99.41
2022-12-31T03:40:25.000Z,99.18
2022-12-31T03:41:23.000Z,99.60
2022-12-31T03:42:23.000Z,99.65
2022-12-31T03:43:23.000Z,99.31
2022-12-31T03:44:23.000Z,99.32
2022-12-31T03:45:23.000Z,99.27
2022-12-31T03:46:23.000Z,99.50
2022-12-31T03:47:24.000Z,99.01
2022-12-31T03:48:24.000Z,98.88
2022-12-31T03:49:23.000Z,99.12
2022-12-31T03:50:23.000Z,98.91
2022-12-31T03:51:23.000Z,98.95
2022-12-31T03:52:24.000Z,98.83
2022-12-31T03:53:24.000Z,99.12
2022-12-31T03:54:23.000Z,99.18
2022-12-31T03:55:24.000Z,99.30
2022-12-31T03:56:23.000Z,99.29
2022-12-31T03:57:24.000Z,99.12
2022-12-31T03:58:23.000Z,99.21
2022-12-31T03:59:23.000Z,98.73
2022-12-31T04:00:24.000Z,99.07
2022-12-31T04:01:24.000Z,98.19
2022-12-31T04:02:24.000Z,97.46
2022-12-31T04:03:24.000Z,97.36
2022-12-31T04:04:23.000Z,97.49
2022-12-31T04:05:24.000Z,97.69
2022-12-31T04:06:24.000Z,97.60
2022-12-31T04:07:23.000Z,97.46
2022-12-31T04:08:23.000Z,97.39
2022-12-31T04:09:24.000Z,97.29
2022-12-31T04:10:23.000Z,97.21
2022-12-31T04:11:23.000Z,97.32
2022-12-31T04:12:24.000Z,97.30
2022-12-31T04:13:23.000Z,97.16
2022-12-31T04:14:23.000Z,96.48
2022-12-31T04:15:23.000Z,96.32
2022-12-31T04:16:24.000Z,96.35
2022-12-31T04:17:24.000Z,96.71
2022-12-31T04:18:23.000Z,96.53
2022-12-31T04:19:23.000Z,96.33
2022-12-31T04:20:23.000Z,96.34
2022-12-31T04:21:23.000Z,96.33
2022-12-31T04:22:23.000Z,96.35
2022-12-31T04:23:23.000Z,96.16
2022-12-31T04:24:23.000Z,96.12
2022-12-31T04:25:23.000Z,95.83
2022-12-31T04:26:23.000Z,95.31
2022-12-31T04:27:23.000Z,95.07
2022-12-31T04:28:23.000Z,94.81
2022-12-31T04:29:23.000Z,94.78
2022-12-31T04:30:23.000Z,94.60
2022-12-31T04:31:23.000Z,94.79
2022-12-31T04:32:23.000Z,94.46
2022-12-31T04:33:23.000Z,94.16
2022-12-31T04:34:23.000Z,94.42
2022-12-31T04:35:23.000Z,94.40
2022-12-31T04:36:23.000Z,93.76
2022-12-31T04:37:23.000Z,93.70
2022-12-31T04:38:23.000Z,93.37
2022-12-31T04:39:23.000Z,93.19
2022-12-31T04:40:23.000Z,93.39
2022-12-31T04:41:25.000Z,93.30
2022-12-31T04:42:23.000Z,93.27
2022-12-31T04:43:23.000Z,93.12
2022-12-31T04:44:23.000Z,93.41
2022-12-31T04:45:23.000Z,93.56
2022-12-31T04:46:29.000Z,93.71
2022-12-31T04:47:23.000Z,93.46
2022-12-31T04:48:23.000Z,93.61
2022-12-31T04:49:23.000Z,93.54
2022-12-31T04:50:23.000Z,92.94
2022-12-31T04:51:24.000Z,93.20
2022-12-31T04:52:23.000Z,92.83
2022-12-31T04:53:23.000Z,93.20
2022-12-31T04:54:23.000Z,93.16
2022-12-31T04:55:23.000Z,93.36
2022-12-31T04:56:24.000Z,93.33
2022-12-31T04:57:23.000Z,93.79
2022-12-31T04:58:23.000Z,94.13
2022-12-31T04:59:23.000Z,94.02
2022-12-31T05:00:23.000Z,94.11
2022-12-31T05:01:23.000Z,93.59
2022-12-31T05:02:23.000Z,93.44
2022-12-31T05:03:24.000Z,93.72
2022-12-31T05:04:23.000Z,93.44
2022-12-31T05:05:23.000Z,93.27
2022-12-31T05:06:23.000Z,93.12
2022-12-31T05:07:23.000Z,93.20
2022-12-31T05:08:23.000Z,93.30
2022-12-31T05:09:26.000Z,93.32
2022-12-31T05:10:23.000Z,93.38
2022-12-31T05:11:23.000Z,93.21
2022-12-31T05:12:23.000Z,93.19
2022-12-31T05:13:23.000Z,92.67
2022-12-31T05:14:24.000Z,93.04
2022-12-31T05:15:23.000Z,92.98
2022-12-31T05:16:23.000Z,92.62
2022-12-31T05:17:23.000Z,92.86
2022-12-31T05:18:23.000Z,92.78
2022-12-31T05:19:23.000Z,92.81
2022-12-31T05:20:22.000Z,92.98
2022-12-31T05:21:23.000Z,93.13
2022-12-31T05:22:28.000Z,93.07
2022-12-31T05:23:23.000Z,92.91
2022-12-31T05:24:22.000Z,93.17
2022-12-31T05:25:23.000Z,93.41
2022-12-31T05:26:22.000Z,93.17
2022-12-31T05:27:23.000Z,92.90
2022-12-31T05:28:23.000Z,92.94
2022-12-31T05:29:23.000Z,93.02
2022-12-31T05:30:23.000Z,93.12
2022-12-31T05:31:23.000Z,93.25
2022-12-31T05:32:23.000Z,93.06
2022-12-31T05:33:23.000Z,92.93
2022-12-31T05:34:22.000Z,93.12
2022-12-31T05:35:23.000Z,93.20
2022-12-31T05:36:22.000Z,93.20
2022-12-31T05:37:24.000Z,92.95
2022-12-31T05:38:24.000Z,93.13
2022-12-31T05:39:22.000Z,93.00
2022-12-31T05:40:22.000Z,93.32
2022-12-31T05:41:22.000Z,93.48
2022-12-31T05:42:23.000Z,93.60
2022-12-31T05:43:23.000Z,93.62
2022-12-31T05:44:23.000Z,93.39
2022-12-31T05:45:23.000Z,93.03
2022-12-31T05:46:22.000Z,92.71
2022-12-31T05:47:23.000Z,92.89
2022-12-31T05:48:23.000Z,92.97
2022-12-31T05:49:23.000Z,93.03
2022-12-31T05:50:23.000Z,92.80
2022-12-31T05:51:23.000Z,92.39
2022-12-31T05:52:23.000Z,91.47
2022-12-31T05:53:23.000Z,91.92
2022-12-31T05:54:23.000Z,92.13
2022-12-31T05:55:23.000Z,92.23
2022-12-31T05:56:23.000Z,92.42
2022-12-31T05:57:23.000Z,92.75
2022-12-31T05:58:23.000Z,92.64
2022-12-31T05:59:23.000Z,92.62
2022-12-31T06:00:23.000Z,92.56
2022-12-31T06:01:23.000Z,92.74
2022-12-31T06:02:23.000Z,92.91
2022-12-31T06:03:23.000Z,93.15
2022-12-31T06:04:23.000Z,93.22
2022-12-31T06:05:23.000Z,93.07
2022-12-31T06:06:23.000Z,93.08
2022-12-31T06:07:23.000Z,93.34
2022-12-31T06:08:23.000Z,93.49
2022-12-31T06:09:23.000Z,93.55
2022-12-31T06:10:23.000Z,93.61
2022-12-31T06:11:23.000Z,93.76
2022-12-31T06:12:23.000Z,93.95
2022-12-31T06:13:23.000Z,93.92
2022-12-31T06:14:23.000Z,93.61
2022-12-31T06:15:23.000Z,93.79
2022-12-31T06:16:23.000Z,93.85
2022-12-31T06:17:23.000Z,93.71
2022-12-31T06:18:23.000Z,93.72
2022-12-31T06:19:23.000Z,93.89
2022-12-31T06:20:23.000Z,94.02
2022-12-31T06:21:23.000Z,93.96
2022-12-31T06:22:23.000Z,93.63
2022-12-31T06:23:22.000Z,93.78
2022-12-31T06:24:22.000Z,93.77
2022-12-31T06:25:23.000Z,94.21
2022-12-31T06:26:24.000Z,94.01
2022-12-31T06:27:23.000Z,94.04
2022-12-31T06:28:22.000Z,93.80
2022-12-31T06:29:23.000Z,93.84
2022-12-31T06:30:22.000Z,93.90
2022-12-31T06:31:23.000Z,93.77
2022-12-31T06:32:23.000Z,94.08
2022-12-31T06:33:22.000Z,94.25
2022-12-31T06:34:22.000Z,94.08
2022-12-31T06:35:22.000Z,94.26
2022-12-31T06:36:23.000Z,94.32
2022-12-31T06:37:22.000Z,94.15
2022-12-31T06:38:23.000Z,94.11
2022-12-31T06:39:23.000Z,93.95
2022-12-31T06:40:23.000Z,94.05
2022-12-31T06:41:23.000Z,94.09
2022-12-31T06:42:26.000Z,94.23
2022-12-31T06:43:23.000Z,94.39
2022-12-31T06:44:23.000Z,94.32
2022-12-31T06:45:22.000Z,94.46
2022-12-31T06:46:22.000Z,94.45
2022-12-31T06:47:23.000Z,94.46
2022-12-31T06:48:22.000Z,94.04
2022-12-31T06:49:23.000Z,93.67
2022-12-31T06:50:23.000Z,93.91
2022-12-31T06:51:22.000Z,94.14
2022-12-31T06:52:23.000Z,94.29
2022-12-31T06:53:23.000Z,94.19
2022-12-31T06:54:22.000Z,94.30
2022-12-31T06:55:23.000Z,93.91
2022-12-31T06:56:25.000Z,93.68
2022-12-31T06:57:23.000Z,93.69
2022-12-31T06:58:23.000Z,93.57
2022-12-31T06:59:26.000Z,93.50
2022-12-31T07:00:23.000Z,92.85
2022-12-31T07:01:33.000Z,92.86
2022-12-31T07:02:34.000Z,93.29
2022-12-31T07:03:38.000Z,93.53
2022-12-31T07:04:33.000Z,93.60
2022-12-31T07:05:33.000Z,93.77
2022-12-31T07:06:33.000Z,93.61
2022-12-31T07:07:39.000Z,93.69
2022-12-31T07:08:33.000Z,93.87
2022-12-31T07:09:46.000Z,93.88
2022-12-31T07:10:34.000Z,93.81
2022-12-31T07:11:33.000Z,93.56
2022-12-31T07:12:37.000Z,93.67
2022-12-31T07:13:42.000Z,93.76
2022-12-31T07:14:47.000Z,93.83
2022-12-31T07:15:46.000Z,93.36
2022-12-31T07:16:56.000Z,93.33
2022-12-31T07:17:33.000Z,93.18
2022-12-31T07:18:50.000Z,93.06
2022-12-31T07:19:33.000Z,93.05
2022-12-31T07:20:23.000Z,93.01
2022-12-31T07:21:34.000Z,93.01
2022-12-31T07:22:23.000Z,92.64
2022-12-31T07:23:23.000Z,92.73
2022-12-31T07:24:23.000Z,92.94
2022-12-31T07:25:23.000Z,92.78
2022-12-31T07:26:48.000Z,92.76
2022-12-31T07:27:48.000Z,92.72
2022-12-31T07:28:32.000Z,92.78
2022-12-31T07:29:44.000Z,92.84
2022-12-31T07:30:33.000Z,92.95
2022-12-31T07:31:46.000Z,92.87
2022-12-31T07:32:36.000Z,93.16
2022-12-31T07:33:43.000Z,92.38
2022-12-31T07:34:42.000Z,92.50
2022-12-31T07:35:42.000Z,91.89
2022-12-31T07:36:46.000Z,92.08
2022-12-31T07:37:38.000Z,92.06
2022-12-31T07:38:32.000Z,92.12
2022-12-31T07:39:33.000Z,92.02
2022-12-31T07:40:34.000Z,91.88
2022-12-31T07:41:41.000Z,92.07
2022-12-31T07:42:34.000Z,91.82
2022-12-31T07:43:45.000Z,91.87
2022-12-31T07:44:35.000Z,92.10
2022-12-31T07:45:33.000Z,91.75
2022-12-31T07:46:31.000Z,91.76
2022-12-31T07:47:25.000Z,91.73
2022-12-31T07:48:24.000Z,91.97
2022-12-31T07:49:25.000Z,92.09
2022-12-31T07:50:23.000Z,92.03
2022-12-31T07:51:24.000Z,91.92
2022-12-31T07:52:24.000Z,91.93
2022-12-31T07:53:24.000Z,91.75
2022-12-31T07:54:23.000Z,91.55
2022-12-31T07:55:23.000Z,91.55
2022-12-31T07:56:23.000Z,91.64
2022-12-31T07:57:34.000Z,91.40
2022-12-31T07:58:33.000Z,91.02
2022-12-31T07:59:39.000Z,90.91
2022-12-31T08:00:24.000Z,91.22
2022-12-31T08:01:33.000Z,91.31
2022-12-31T08:02:40.000Z,91.27
2022-12-31T08:03:33.000Z,91.45
2022-12-31T08:04:41.000Z,91.31
2022-12-31T08:05:46.000Z,91.00
2022-12-31T08:06:43.000Z,90.46
2022-12-31T08:07:35.000Z,90.99
2022-12-31T08:08:37.000Z,90.98
2022-12-31T08:09:34.000Z,91.23
2022-12-31T08:10:36.000Z,91.23
2022-12-31T08:11:35.000Z,91.27
2022-12-31T08:12:26.000Z,91.07
2022-12-31T08:13:24.000Z,91.02
2022-12-31T08:14:24.000Z,90.92
2022-12-31T08:15:23.000Z,90.84
2022-12-31T08:16:24.000Z,90.54
2022-12-31T08:17:23.000Z,90.57
2022-12-31T08:18:23.000Z,90.68
2022-12-31T08:19:28.000Z,90.91
2022-12-31T08:20:25.000Z,90.84
2022-12-31T08:21:38.000Z,90.74
2022-12-31T08:22:37.000Z,90.96
2022-12-31T08:23:31.000Z,91.12
2022-12-31T08:24:36.000Z,91.07
2022-12-31T08:25:47.000Z,91.06
2022-12-31T08:26:36.000Z,90.88
2022-12-31T08:27:35.000Z,90.76
2022-12-31T08:28:33.000Z,90.60
2022-12-31T08:29:33.000Z,90.44
2022-12-31T08:30:33.000Z,90.31
2022-12-31T08:31:32.000Z,90.38
2022-12-31T08:32:32.000Z,90.14
2022-12-31T08:33:43.000Z,90.28
2022-12-31T08:34:47.000Z,90.35
2022-12-31T08:35:33.000Z,90.62
2022-12-31T08:36:33.000Z,90.45
2022-12-31T08:37:46.000Z,90.20
2022-12-31T08:38:36.000Z,90.23
2022-12-31T08:39:43.000Z,89.41
2022-12-31T08:40:33.000Z,89.73
2022-12-31T08:41:42.000Z,89.05
2022-12-31T08:42:36.000Z,89.32
2022-12-31T08:43:46.000Z,89.21
2022-12-31T08:44:33.000Z,89.35
2022-12-31T08:45:37.000Z,89.16
2022-12-31T08:46:32.000Z,88.92
2022-12-31T08:47:37.000Z,88.60
2022-12-31T08:48:31.000Z,87.90
2022-12-31T08:49:27.000Z,88.18
2022-12-31T08:50:23.000Z,87.16
2022-12-31T08:51:25.000Z,87.75
2022-12-31T08:52:25.000Z,87.92
2022-12-31T08:53:23.000Z,87.38
2022-12-31T08:54:23.000Z,87.26
2022-12-31T08:55:23.000Z,86.68
2022-12-31T08:56:34.000Z,87.04
2022-12-31T08:57:47.000Z,87.08
2022-12-31T08:58:37.000Z,86.72
2022-12-31T08:59:33.000Z,87.21
2022-12-31T09:00:25.000Z,86.99
2022-12-31T09:01:27.000Z,86.83
2022-12-31T09:02:46.000Z,86.82
2022-12-31T09:03:33.000Z,87.13
2022-12-31T09:04:33.000Z,87.04
2022-12-31T09:05:35.000Z,86.11
2022-12-31T09:06:36.000Z,85.74
2022-12-31T09:07:33.000Z,86.40
2022-12-31T09:08:33.000Z,86.18
2022-12-31T09:09:33.000Z,86.23
2022-12-31T09:10:30.000Z,86.18
2022-12-31T09:11:37.000Z,85.11
2022-12-31T09:12:35.000Z,85.90
2022-12-31T09:13:33.000Z,86.02
2022-12-31T09:14:39.000Z,85.69
2022-12-31T09:15:31.000Z,85.87
2022-12-31T09:16:43.000Z,85.89
2022-12-31T09:17:41.000Z,85.38
2022-12-31T09:18:23.000Z,85.63
2022-12-31T09:19:23.000Z,85.97
2022-12-31T09:20:29.000Z,85.92
2022-12-31T09:21:23.000Z,86.08
2022-12-31T09:22:23.000Z,85.88
2022-12-31T09:23:24.000Z,86.05
2022-12-31T09:24:23.000Z,85.79
2022-12-31T09:25:24.000Z,85.50
2022-12-31T09:26:40.000Z,85.36
2022-12-31T09:27:28.000Z,85.58
2022-12-31T09:28:44.000Z,84.65
2022-12-31T09:29:40.000Z,84.85
2022-12-31T09:30:28.000Z,84.35
2022-12-31T09:31:33.000Z,83.98
2022-12-31T09:32:33.000Z,84.05
2022-12-31T09:33:41.000Z,84.09
2022-12-31T09:34:33.000Z,84.59
2022-12-31T09:35:56.000Z,84.40
2022-12-31T09:36:30.000Z,84.00
2022-12-31T09:37:37.000Z,84.11
2022-12-31T09:38:34.000Z,83.55
2022-12-31T09:39:36.000Z,83.73
2022-12-31T09:40:43.000Z,83.53
2022-12-31T09:41:43.000Z,83.20
2022-12-31T09:42:34.000Z,83.23
2022-12-31T09:43:33.000Z,83.00
2022-12-31T09:44:46.000Z,83.38
2022-12-31T09:45:33.000Z,83.08
2022-12-31T09:46:33.000Z,82.81
2022-12-31T09:47:33.000Z,82.52
2022-12-31T09:48:33.000Z,82.33
2022-12-31T09:49:43.000Z,82.65
2022-12-31T09:50:46.000Z,81.80
2022-12-31T09:51:31.000Z,81.48
2022-12-31T09:52:47.000Z,81.01
2022-12-31T09:53:39.000Z,81.68
2022-12-31T09:54:33.000Z,81.32
2022-12-31T09:55:33.000Z,80.79
2022-12-31T09:56:31.000Z,80.86
2022-12-31T09:57:38.000Z,81.22
2022-12-31T09:58:50.000Z,81.07
2022-12-31T09:59:35.000Z,80.53
2022-12-31T10:00:33.000Z,81.06
2022-12-31T10:01:47.000Z,80.72
2022-12-31T10:02:46.000Z,80.24
2022-12-31T10:03:36.000Z,80.60
2022-12-31T10:04:33.000Z,80.34
2022-12-31T10:05:33.000Z,79.59
2022-12-31T10:06:46.000Z,79.34
2022-12-31T10:07:40.000Z,78.97
2022-12-31T10:08:39.000Z,79.66
2022-12-31T10:09:37.000Z,78.99
2022-12-31T10:10:36.000Z,79.28
2022-12-31T10:11:36.000Z,79.42
2022-12-31T10:12:35.000Z,79.21
2022-12-31T10:13:35.000Z,78.55
2022-12-31T10:14:43.000Z,78.65
2022-12-31T10:15:40.000Z,78.41
2022-12-31T10:16:46.000Z,78.39
2022-12-31T10:17:46.000Z,78.30
2022-12-31T10:18:46.000Z,77.79
2022-12-31T10:19:49.000Z,77.69
2022-12-31T10:20:33.000Z,77.19
2022-12-31T10:21:46.000Z,77.54
2022-12-31T10:22:33.000Z,77.36
2022-12-31T10:23:33.000Z,77.27
2022-12-31T10:24:32.000Z,77.20
2022-12-31T10:25:33.000Z,77.58
2022-12-31T10:26:48.000Z,77.16
2022-12-31T10:27:43.000Z,76.55
2022-12-31T10:28:43.000Z,76.77
2022-12-31T10:29:33.000Z,76.52
2022-12-31T10:30:23.000Z,75.60
2022-12-31T10:31:45.000Z,75.99
2022-12-31T10:32:40.000Z,74.62
2022-12-31T10:33:32.000Z,74.58
2022-12-31T10:34:43.000Z,74.67
2022-12-31T10:35:32.000Z,75.25
2022-12-31T10:36:30.000Z,73.63
2022-12-31T10:37:29.000Z,74.51
2022-12-31T10:38:32.000Z,73.81
2022-12-31T10:39:36.000Z,74.25
2022-12-31T10:40:43.000Z,74.03
2022-12-31T10:41:33.000Z,73.94
2022-12-31T10:42:33.000Z,73.66
2022-12-31T10:43:43.000Z,73.55
2022-12-31T10:44:42.000Z,73.93
2022-12-31T10:45:32.000Z,73.80
2022-12-31T10:46:52.000Z,74.22
2022-12-31T10:47:55.000Z,74.58
2022-12-31T10:48:33.000Z,75.03
2022-12-31T10:49:32.000Z,74.60
2022-12-31T10:50:41.000Z,75.17
2022-12-31T10:51:38.000Z,74.67
2022-12-31T10:52:40.000Z,74.71
2022-12-31T10:53:39.000Z,74.58
2022-12-31T10:54:46.000Z,73.79
2022-12-31T10:56:00.000Z,74.17
2022-12-31T10:56:33.000Z,74.69
2022-12-31T10:57:46.000Z,74.50
2022-12-31T10:58:46.000Z,74.51
2022-12-31T10:59:42.000Z,74.31
2022-12-31T11:00:29.000Z,74.11
2022-12-31T11:01:33.000Z,73.84
2022-12-31T11:02:43.000Z,73.35
2022-12-31T11:03:42.000Z,72.03
2022-12-31T11:04:45.000Z,72.64
2022-12-31T11:05:33.000Z,72.17
2022-12-31T11:06:41.000Z,72.61
2022-12-31T11:07:39.000Z,72.23
2022-12-31T11:08:33.000Z,72.48
2022-12-31T11:09:53.000Z,73.34
2022-12-31T11:10:47.000Z,73.03
2022-12-31T11:11:33.000Z,72.06
2022-12-31T11:12:49.000Z,72.66
2022-12-31T11:13:33.000Z,72.25
2022-12-31T11:14:33.000Z,71.35
2022-12-31T11:15:33.000Z,71.01
2022-12-31T11:16:46.000Z,70.90
2022-12-31T11:17:43.000Z,71.61
2022-12-31T11:18:37.000Z,71.38
2022-12-31T11:19:34.000Z,71.17
2022-12-31T11:20:37.000Z,71.19
2022-12-31T11:21:37.000Z,70.64
2022-12-31T11:22:33.000Z,70.05
2022-12-31T11:23:35.000Z,70.46
2022-12-31T11:24:57.000Z,70.58
2022-12-31T11:25:46.000Z,71.41
2022-12-31T11:26:45.000Z,70.50
2022-12-31T11:27:32.000Z,70.28
2022-12-31T11:28:39.000Z,70.96
2022-12-31T11:29:36.000Z,70.35
2022-12-31T11:30:39.000Z,70.88
2022-12-31T11:31:38.000Z,71.34
2022-12-31T11:32:42.000Z,70.08
2022-12-31T11:33:38.000Z,69.74
2022-12-31T11:34:32.000Z,70.52
2022-12-31T11:35:32.000Z,71.32
2022-12-31T11:36:39.000Z,69.72
2022-12-31T11:37:45.000Z,68.52
2022-12-31T11:38:26.000Z,68.99
2022-12-31T11:39:45.000Z,69.48
2022-12-31T11:40:38.000Z,69.61
2022-12-31T11:41:44.000Z,69.88
2022-12-31T11:42:32.000Z,70.02
2022-12-31T11:43:33.000Z,68.41
2022-12-31T11:44:34.000Z,69.14
2022-12-31T11:45:32.000Z,68.91
2022-12-31T11:46:42.000Z,67.62
2022-12-31T11:47:41.000Z,68.26
2022-12-31T11:47:41.000Z,68.26
2022-12-31T11:48:55.000Z,68.57
2022-12-31T11:49:47.000Z,68.10
2022-12-31T11:50:40.000Z,67.44
2022-12-31T11:51:32.000Z,67.96
2022-12-31T11:52:46.000Z,67.77
2022-12-31T11:53:37.000Z,68.19
2022-12-31T11:54:33.000Z,68.17
2022-12-31T11:55:37.000Z,67.59
2022-12-31T11:56:24.000Z,67.64
2022-12-31T11:57:31.000Z,68.74
2022-12-31T11:58:27.000Z,67.97
2022-12-31T11:59:22.000Z,67.87
2022-12-31T12:00:24.000Z,66.97
2022-12-31T12:01:33.000Z,66.98
2022-12-31T12:02:31.000Z,67.93
2022-12-31T12:03:23.000Z,67.51
2022-12-31T12:04:23.000Z,67.42
2022-12-31T12:05:24.000Z,67.85
2022-12-31T12:06:29.000Z,67.08
2022-12-31T12:07:23.000Z,67.48
2022-12-31T12:08:24.000Z,67.60
2022-12-31T12:09:32.000Z,67.73
2022-12-31T12:10:26.000Z,67.51
2022-12-31T12:11:26.000Z,66.05
2022-12-31T12:12:22.000Z,65.79
2022-12-31T12:13:24.000Z,66.40
2022-12-31T12:14:31.000Z,66.24
2022-12-31T12:15:27.000Z,66.48
2022-12-31T12:16:24.000Z,67.07
2022-12-31T12:17:28.000Z,67.22
2022-12-31T12:18:30.000Z,67.51
2022-12-31T12:19:26.000Z,67.49
2022-12-31T12:20:29.000Z,66.59
2022-12-31T12:21:23.000Z,67.00
2022-12-31T12:22:25.000Z,66.59
2022-12-31T12:23:24.000Z,67.41
2022-12-31T12:24:28.000Z,66.94
2022-12-31T12:25:33.000Z,66.88
2022-12-31T12:26:35.000Z,66.39
2022-12-31T12:27:28.000Z,66.74
2022-12-31T12:28:26.000Z,67.34
2022-12-31T12:29:28.000Z,66.83
2022-12-31T12:30:26.000Z,66.02
2022-12-31T12:31:25.000Z,65.52
2022-12-31T12:32:25.000Z,66.02
2022-12-31T12:33:24.000Z,65.62
2022-12-31T12:34:33.000Z,65.24
2022-12-31T12:35:29.000Z,65.39
2022-12-31T12:36:23.000Z,64.99
2022-12-31T12:37:33.000Z,65.38
2022-12-31T12:38:23.000Z,64.14
2022-12-31T12:39:27.000Z,64.91
2022-12-31T12:40:23.000Z,65.10
2022-12-31T12:41:25.000Z,65.37
2022-12-31T12:42:23.000Z,65.65
2022-12-31T12:43:26.000Z,64.87
2022-12-31T12:44:23.000Z,65.18